sensor_id;sensor_type;location;lat;lon;timestamp;temperature;humidity
10566;DHT22;5331;48.148;16.326;2023-04-25T00:00:59;11.10;1.00
10566;DHT22;5331;48.148;16.326;2023-04-25T00:03:27;11.20;1.00
10566;DHT22;5331;48.148;16.326;2023-04-25T00:05:55;11.10;1.00
10566;DHT22;5331;48.148;16.326;2023-04-25T00:08:22;11.20;1.00
10566;DHT22;5331;48.148;16.326;2023-04-25T00:10:49;11.10;1.00
10566;DHT22;5331;48.148;16.326;2023-04-25T00:13:16;11.10;1.00
10566;DHT22;5331;48.148;16.326;2023-04-25T00:15:44;11.10;1.00
10566;DHT22;5331;48.148;16.326;2023-04-25T00:18:13;11.10;1.00
10566;DHT22;5331;48.148;16.326;2023-04-25T00:20:40;11.00;1.00
10566;DHT22;5331;48.148;16.326;2023-04-25T00:23:12;11.10;1.00
10566;DHT22;5331;48.148;16.326;2023-04-25T00:25:43;11.10;1.00
10566;DHT22;5331;48.148;16.326;2023-04-25T00:28:10;11.10;1.00
10566;DHT22;5331;48.148;16.326;2023-04-25T00:30:37;11.00;1.00
10566;DHT22;5331;48.148;16.326;2023-04-25T00:33:04;11.10;1.00
10566;DHT22;5331;48.148;16.326;2023-04-25T00:35:32;11.00;1.00
10566;DHT22;5331;48.148;16.326;2023-04-25T00:37:59;11.10;1.00
10566;DHT22;5331;48.148;16.326;2023-04-25T00:40:26;11.00;1.00
10566;DHT22;5331;48.148;16.326;2023-04-25T00:42:53;11.10;1.00
10566;DHT22;5331;48.148;16.326;2023-04-25T00:45:21;11.00;1.00
10566;DHT22;5331;48.148;16.326;2023-04-25T00:47:47;11.00;1.00
10566;DHT22;5331;48.148;16.326;2023-04-25T00:50:14;11.00;1.00
10566;DHT22;5331;48.148;16.326;2023-04-25T00:52:44;11.00;1.00
10566;DHT22;5331;48.148;16.326;2023-04-25T00:55:12;11.00;1.00
10566;DHT22;5331;48.148;16.326;2023-04-25T00:57:39;11.00;1.00
10566;DHT22;5331;48.148;16.326;2023-04-25T01:00:08;11.00;1.00
10566;DHT22;5331;48.148;16.326;2023-04-25T01:02:36;11.00;1.00
10566;DHT22;5331;48.148;16.326;2023-04-25T01:05:04;11.00;1.00
10566;DHT22;5331;48.148;16.326;2023-04-25T01:07:31;11.00;1.00
10566;DHT22;5331;48.148;16.326;2023-04-25T01:10:00;10.90;1.00
10566;DHT22;5331;48.148;16.326;2023-04-25T01:12:28;10.90;1.00
10566;DHT22;5331;48.148;16.326;2023-04-25T01:14:56;10.90;1.00
10566;DHT22;5331;48.148;16.326;2023-04-25T01:17:23;11.00;1.00
10566;DHT22;5331;48.148;16.326;2023-04-25T01:19:50;10.90;1.00
10566;DHT22;5331;48.148;16.326;2023-04-25T01:22:18;10.80;1.00
10566;DHT22;5331;48.148;16.326;2023-04-25T01:24:46;10.90;1.00
10566;DHT22;5331;48.148;16.326;2023-04-25T01:27:13;10.80;1.00
10566;DHT22;5331;48.148;16.326;2023-04-25T01:29:40;10.90;1.00
10566;DHT22;5331;48.148;16.326;2023-04-25T01:32:08;10.80;1.00
10566;DHT22;5331;48.148;16.326;2023-04-25T01:34:36;10.80;1.00
10566;DHT22;5331;48.148;16.326;2023-04-25T01:37:03;10.80;1.00
10566;DHT22;5331;48.148;16.326;2023-04-25T01:39:31;10.80;1.00
10566;DHT22;5331;48.148;16.326;2023-04-25T01:41:59;10.80;1.00
10566;DHT22;5331;48.148;16.326;2023-04-25T01:44:27;10.80;1.00
10566;DHT22;5331;48.148;16.326;2023-04-25T01:46:54;10.80;1.00
10566;DHT22;5331;48.148;16.326;2023-04-25T01:49:21;10.70;1.00
10566;DHT22;5331;48.148;16.326;2023-04-25T01:51:49;10.80;1.00
10566;DHT22;5331;48.148;16.326;2023-04-25T01:54:17;10.70;1.00
10566;DHT22;5331;48.148;16.326;2023-04-25T01:56:50;10.70;1.00
10566;DHT22;5331;48.148;16.326;2023-04-25T01:59:18;10.70;1.00
10566;DHT22;5331;48.148;16.326;2023-04-25T02:01:45;10.70;1.00
10566;DHT22;5331;48.148;16.326;2023-04-25T02:04:12;10.70;1.00
10566;DHT22;5331;48.148;16.326;2023-04-25T02:06:39;10.60;1.00
10566;DHT22;5331;48.148;16.326;2023-04-25T02:09:06;10.60;1.00
10566;DHT22;5331;48.148;16.326;2023-04-25T02:11:33;10.60;1.00
10566;DHT22;5331;48.148;16.326;2023-04-25T02:14:02;10.70;1.00
10566;DHT22;5331;48.148;16.326;2023-04-25T02:16:28;10.60;1.00
10566;DHT22;5331;48.148;16.326;2023-04-25T02:18:56;10.50;1.00
10566;DHT22;5331;48.148;16.326;2023-04-25T02:21:22;10.60;1.00
10566;DHT22;5331;48.148;16.326;2023-04-25T02:23:49;10.50;1.00
10566;DHT22;5331;48.148;16.326;2023-04-25T02:26:18;10.50;1.00
10566;DHT22;5331;48.148;16.326;2023-04-25T02:28:46;10.50;1.00
10566;DHT22;5331;48.148;16.326;2023-04-25T02:31:14;10.40;1.00
10566;DHT22;5331;48.148;16.326;2023-04-25T02:33:41;10.40;1.00
10566;DHT22;5331;48.148;16.326;2023-04-25T02:36:08;10.40;1.00
10566;DHT22;5331;48.148;16.326;2023-04-25T02:38:35;10.40;1.00
10566;DHT22;5331;48.148;16.326;2023-04-25T02:41:02;10.40;1.00
10566;DHT22;5331;48.148;16.326;2023-04-25T02:43:29;10.30;1.00
10566;DHT22;5331;48.148;16.326;2023-04-25T02:45:56;10.40;1.00
10566;DHT22;5331;48.148;16.326;2023-04-25T02:48:24;10.40;1.00
10566;DHT22;5331;48.148;16.326;2023-04-25T02:50:51;10.30;1.00
10566;DHT22;5331;48.148;16.326;2023-04-25T02:53:18;10.30;1.00
10566;DHT22;5331;48.148;16.326;2023-04-25T02:55:45;10.20;1.00
10566;DHT22;5331;48.148;16.326;2023-04-25T02:58:12;10.20;1.00
10566;DHT22;5331;48.148;16.326;2023-04-25T03:00:40;10.20;1.00
10566;DHT22;5331;48.148;16.326;2023-04-25T03:03:07;10.10;1.00
10566;DHT22;5331;48.148;16.326;2023-04-25T03:05:35;10.20;1.00
10566;DHT22;5331;48.148;16.326;2023-04-25T03:08:02;10.20;1.00
10566;DHT22;5331;48.148;16.326;2023-04-25T03:10:30;10.10;1.00
10566;DHT22;5331;48.148;16.326;2023-04-25T03:12:56;10.20;1.00
10566;DHT22;5331;48.148;16.326;2023-04-25T03:15:24;10.10;1.00
10566;DHT22;5331;48.148;16.326;2023-04-25T03:17:50;10.10;1.00
10566;DHT22;5331;48.148;16.326;2023-04-25T03:20:17;10.10;1.00
10566;DHT22;5331;48.148;16.326;2023-04-25T03:22:46;10.00;1.00
10566;DHT22;5331;48.148;16.326;2023-04-25T03:25:13;10.00;1.00
10566;DHT22;5331;48.148;16.326;2023-04-25T03:27:40;9.90;1.00
10566;DHT22;5331;48.148;16.326;2023-04-25T03:30:07;10.00;1.00
10566;DHT22;5331;48.148;16.326;2023-04-25T03:32:34;9.90;1.00
10566;DHT22;5331;48.148;16.326;2023-04-25T03:35:01;9.90;1.00
10566;DHT22;5331;48.148;16.326;2023-04-25T03:37:28;9.90;1.00
10566;DHT22;5331;48.148;16.326;2023-04-25T03:39:57;9.80;1.00
10566;DHT22;5331;48.148;16.326;2023-04-25T03:42:24;9.80;1.00
10566;DHT22;5331;48.148;16.326;2023-04-25T03:44:51;9.80;1.00
10566;DHT22;5331;48.148;16.326;2023-04-25T03:47:18;9.80;1.00
10566;DHT22;5331;48.148;16.326;2023-04-25T03:49:45;9.80;1.00
10566;DHT22;5331;48.148;16.326;2023-04-25T03:52:12;9.70;1.00
10566;DHT22;5331;48.148;16.326;2023-04-25T03:54:39;9.70;1.00
10566;DHT22;5331;48.148;16.326;2023-04-25T03:57:07;9.80;1.00
10566;DHT22;5331;48.148;16.326;2023-04-25T03:59:34;9.70;1.00
10566;DHT22;5331;48.148;16.326;2023-04-25T04:02:01;9.70;1.00
10566;DHT22;5331;48.148;16.326;2023-04-25T04:04:28;9.70;1.00
10566;DHT22;5331;48.148;16.326;2023-04-25T04:06:55;9.70;1.00
10566;DHT22;5331;48.148;16.326;2023-04-25T04:09:22;9.70;1.00
10566;DHT22;5331;48.148;16.326;2023-04-25T04:11:49;9.60;1.00
10566;DHT22;5331;48.148;16.326;2023-04-25T04:14:17;9.60;1.00
10566;DHT22;5331;48.148;16.326;2023-04-25T04:16:45;9.50;1.00
10566;DHT22;5331;48.148;16.326;2023-04-25T04:19:12;9.50;1.00
10566;DHT22;5331;48.148;16.326;2023-04-25T04:21:39;9.50;1.00
10566;DHT22;5331;48.148;16.326;2023-04-25T04:24:06;9.50;1.00
10566;DHT22;5331;48.148;16.326;2023-04-25T04:26:33;9.60;1.00
10566;DHT22;5331;48.148;16.326;2023-04-25T04:29:01;9.50;1.00
10566;DHT22;5331;48.148;16.326;2023-04-25T04:31:29;9.50;1.00
10566;DHT22;5331;48.148;16.326;2023-04-25T04:33:58;9.40;1.00
10566;DHT22;5331;48.148;16.326;2023-04-25T04:36:25;9.40;1.00
10566;DHT22;5331;48.148;16.326;2023-04-25T04:38:52;9.50;1.00
10566;DHT22;5331;48.148;16.326;2023-04-25T04:41:19;9.40;1.00
10566;DHT22;5331;48.148;16.326;2023-04-25T04:43:46;9.40;1.00
10566;DHT22;5331;48.148;16.326;2023-04-25T04:46:13;9.30;1.00
10566;DHT22;5331;48.148;16.326;2023-04-25T04:48:41;9.40;1.00
10566;DHT22;5331;48.148;16.326;2023-04-25T04:51:10;9.40;1.00
10566;DHT22;5331;48.148;16.326;2023-04-25T04:53:37;9.30;1.00
10566;DHT22;5331;48.148;16.326;2023-04-25T04:56:04;9.30;1.00
10566;DHT22;5331;48.148;16.326;2023-04-25T04:58:31;9.30;1.00
10566;DHT22;5331;48.148;16.326;2023-04-25T05:00:58;9.30;1.00
10566;DHT22;5331;48.148;16.326;2023-04-25T05:03:25;9.30;1.00
10566;DHT22;5331;48.148;16.326;2023-04-25T05:05:54;9.30;1.00
10566;DHT22;5331;48.148;16.326;2023-04-25T05:08:21;9.30;1.00
10566;DHT22;5331;48.148;16.326;2023-04-25T05:10:48;9.30;1.00
10566;DHT22;5331;48.148;16.326;2023-04-25T05:13:14;9.30;1.00
10566;DHT22;5331;48.148;16.326;2023-04-25T05:15:41;9.20;1.00
10566;DHT22;5331;48.148;16.326;2023-04-25T05:18:08;9.30;1.00
10566;DHT22;5331;48.148;16.326;2023-04-25T05:20:35;9.20;1.00
10566;DHT22;5331;48.148;16.326;2023-04-25T05:23:03;9.20;1.00
10566;DHT22;5331;48.148;16.326;2023-04-25T05:25:31;9.20;1.00
10566;DHT22;5331;48.148;16.326;2023-04-25T05:27:57;9.30;1.00
10566;DHT22;5331;48.148;16.326;2023-04-25T05:30:24;9.20;1.00
10566;DHT22;5331;48.148;16.326;2023-04-25T05:32:51;9.30;1.00
10566;DHT22;5331;48.148;16.326;2023-04-25T05:35:18;9.30;1.00
10566;DHT22;5331;48.148;16.326;2023-04-25T05:37:45;9.40;1.00
10566;DHT22;5331;48.148;16.326;2023-04-25T05:40:14;9.50;1.00
10566;DHT22;5331;48.148;16.326;2023-04-25T05:42:41;9.50;1.00
10566;DHT22;5331;48.148;16.326;2023-04-25T05:45:08;9.70;1.00
10566;DHT22;5331;48.148;16.326;2023-04-25T05:47:35;9.70;1.00
10566;DHT22;5331;48.148;16.326;2023-04-25T05:50:02;9.90;1.00
10566;DHT22;5331;48.148;16.326;2023-04-25T05:52:29;10.00;1.00
10566;DHT22;5331;48.148;16.326;2023-04-25T05:54:56;10.20;1.00
10566;DHT22;5331;48.148;16.326;2023-04-25T05:57:26;10.50;1.00
10566;DHT22;5331;48.148;16.326;2023-04-25T05:59:54;11.00;1.00
10566;DHT22;5331;48.148;16.326;2023-04-25T06:02:21;11.80;1.00
10566;DHT22;5331;48.148;16.326;2023-04-25T06:04:48;12.30;1.00
10566;DHT22;5331;48.148;16.326;2023-04-25T06:07:15;12.90;1.00
10566;DHT22;5331;48.148;16.326;2023-04-25T06:09:42;13.50;1.00
10566;DHT22;5331;48.148;16.326;2023-04-25T06:12:10;13.90;1.00
10566;DHT22;5331;48.148;16.326;2023-04-25T06:14:38;14.30;1.00
10566;DHT22;5331;48.148;16.326;2023-04-25T06:17:06;14.70;1.00
10566;DHT22;5331;48.148;16.326;2023-04-25T06:19:34;15.30;1.00
10566;DHT22;5331;48.148;16.326;2023-04-25T06:22:02;15.60;1.00
10566;DHT22;5331;48.148;16.326;2023-04-25T06:24:29;16.00;1.00
10566;DHT22;5331;48.148;16.326;2023-04-25T06:26:56;16.40;1.00
10566;DHT22;5331;48.148;16.326;2023-04-25T06:29:23;16.60;1.00
10566;DHT22;5331;48.148;16.326;2023-04-25T06:31:51;16.90;1.00
10566;DHT22;5331;48.148;16.326;2023-04-25T06:34:18;17.00;1.00
10566;DHT22;5331;48.148;16.326;2023-04-25T06:36:46;17.00;1.00
10566;DHT22;5331;48.148;16.326;2023-04-25T06:39:13;17.20;1.00
10566;DHT22;5331;48.148;16.326;2023-04-25T06:41:40;17.20;1.00
10566;DHT22;5331;48.148;16.326;2023-04-25T06:44:07;17.30;1.00
10566;DHT22;5331;48.148;16.326;2023-04-25T06:46:34;17.60;1.00
10566;DHT22;5331;48.148;16.326;2023-04-25T06:49:03;17.70;1.00
10566;DHT22;5331;48.148;16.326;2023-04-25T06:51:32;17.50;1.00
10566;DHT22;5331;48.148;16.326;2023-04-25T06:53:59;17.50;1.00
10566;DHT22;5331;48.148;16.326;2023-04-25T06:56:27;17.50;1.00
10566;DHT22;5331;48.148;16.326;2023-04-25T06:58:55;17.70;1.00
10566;DHT22;5331;48.148;16.326;2023-04-25T07:01:22;17.90;1.00
10566;DHT22;5331;48.148;16.326;2023-04-25T07:03:49;17.80;1.00
10566;DHT22;5331;48.148;16.326;2023-04-25T07:06:17;17.50;1.00
10566;DHT22;5331;48.148;16.326;2023-04-25T07:08:44;17.40;1.00
10566;DHT22;5331;48.148;16.326;2023-04-25T07:11:11;17.70;1.00
10566;DHT22;5331;48.148;16.326;2023-04-25T07:13:38;18.10;1.00
10566;DHT22;5331;48.148;16.326;2023-04-25T07:16:06;18.40;1.00
10566;DHT22;5331;48.148;16.326;2023-04-25T07:18:33;18.30;1.00
10566;DHT22;5331;48.148;16.326;2023-04-25T07:21:19;18.00;1.00
10566;DHT22;5331;48.148;16.326;2023-04-25T07:23:46;18.00;1.00
10566;DHT22;5331;48.148;16.326;2023-04-25T07:26:13;18.30;1.00
10566;DHT22;5331;48.148;16.326;2023-04-25T07:28:40;18.40;1.00
10566;DHT22;5331;48.148;16.326;2023-04-25T07:31:07;18.60;1.00
10566;DHT22;5331;48.148;16.326;2023-04-25T07:33:34;18.80;1.00
10566;DHT22;5331;48.148;16.326;2023-04-25T07:36:01;18.70;1.00
10566;DHT22;5331;48.148;16.326;2023-04-25T07:38:29;18.80;1.00
10566;DHT22;5331;48.148;16.326;2023-04-25T07:40:56;18.90;1.00
10566;DHT22;5331;48.148;16.326;2023-04-25T07:43:23;18.80;1.00
10566;DHT22;5331;48.148;16.326;2023-04-25T07:45:51;19.10;1.00
10566;DHT22;5331;48.148;16.326;2023-04-25T07:48:18;19.40;1.00
10566;DHT22;5331;48.148;16.326;2023-04-25T07:50:45;19.40;1.00
10566;DHT22;5331;48.148;16.326;2023-04-25T07:53:12;19.30;1.00
10566;DHT22;5331;48.148;16.326;2023-04-25T07:55:41;19.30;1.00
10566;DHT22;5331;48.148;16.326;2023-04-25T07:58:09;19.50;1.00
10566;DHT22;5331;48.148;16.326;2023-04-25T08:00:36;19.40;1.00
10566;DHT22;5331;48.148;16.326;2023-04-25T08:03:03;19.20;1.00
10566;DHT22;5331;48.148;16.326;2023-04-25T08:05:33;19.00;1.00
10566;DHT22;5331;48.148;16.326;2023-04-25T08:08:00;18.80;1.00
10566;DHT22;5331;48.148;16.326;2023-04-25T08:10:27;17.60;1.00
10566;DHT22;5331;48.148;16.326;2023-04-25T08:12:56;17.60;1.00
10566;DHT22;5331;48.148;16.326;2023-04-25T08:15:24;17.30;1.00
10566;DHT22;5331;48.148;16.326;2023-04-25T08:17:51;17.00;1.00
10566;DHT22;5331;48.148;16.326;2023-04-25T08:20:18;17.60;1.00
10566;DHT22;5331;48.148;16.326;2023-04-25T08:22:46;17.60;1.00
10566;DHT22;5331;48.148;16.326;2023-04-25T08:25:14;18.00;1.00
10566;DHT22;5331;48.148;16.326;2023-04-25T08:27:41;18.40;1.00
10566;DHT22;5331;48.148;16.326;2023-04-25T08:30:10;18.50;1.00
10566;DHT22;5331;48.148;16.326;2023-04-25T08:32:37;18.50;1.00
10566;DHT22;5331;48.148;16.326;2023-04-25T08:35:06;18.70;1.00
10566;DHT22;5331;48.148;16.326;2023-04-25T08:37:33;18.80;1.00
10566;DHT22;5331;48.148;16.326;2023-04-25T08:40:02;19.10;1.00
10566;DHT22;5331;48.148;16.326;2023-04-25T08:42:33;18.90;1.00
10566;DHT22;5331;48.148;16.326;2023-04-25T08:45:01;18.80;1.00
10566;DHT22;5331;48.148;16.326;2023-04-25T08:47:33;18.40;1.00
10566;DHT22;5331;48.148;16.326;2023-04-25T08:50:02;18.60;1.00
10566;DHT22;5331;48.148;16.326;2023-04-25T08:52:36;18.80;1.00
10566;DHT22;5331;48.148;16.326;2023-04-25T08:55:05;18.90;1.00
10566;DHT22;5331;48.148;16.326;2023-04-25T08:57:34;18.40;1.00
10566;DHT22;5331;48.148;16.326;2023-04-25T09:00:02;17.70;1.00
10566;DHT22;5331;48.148;16.326;2023-04-25T09:02:32;17.20;1.00
10566;DHT22;5331;48.148;16.326;2023-04-25T09:04:59;16.90;1.00
10566;DHT22;5331;48.148;16.326;2023-04-25T09:07:26;16.60;1.00
10566;DHT22;5331;48.148;16.326;2023-04-25T09:09:54;16.50;1.00
10566;DHT22;5331;48.148;16.326;2023-04-25T09:12:21;16.60;1.00
10566;DHT22;5331;48.148;16.326;2023-04-25T09:15:05;17.30;1.00
10566;DHT22;5331;48.148;16.326;2023-04-25T09:17:34;17.80;1.00
10566;DHT22;5331;48.148;16.326;2023-04-25T09:20:07;17.60;1.00
10566;DHT22;5331;48.148;16.326;2023-04-25T09:22:34;17.30;1.00
10566;DHT22;5331;48.148;16.326;2023-04-25T09:25:03;16.90;1.00
10566;DHT22;5331;48.148;16.326;2023-04-25T09:27:32;16.30;1.00
10566;DHT22;5331;48.148;16.326;2023-04-25T09:30:00;15.90;1.00
10566;DHT22;5331;48.148;16.326;2023-04-25T09:32:27;15.40;1.00
10566;DHT22;5331;48.148;16.326;2023-04-25T09:34:56;14.80;1.00
10566;DHT22;5331;48.148;16.326;2023-04-25T09:37:25;14.40;1.00
10566;DHT22;5331;48.148;16.326;2023-04-25T09:39:54;14.10;1.00
10566;DHT22;5331;48.148;16.326;2023-04-25T09:42:22;13.90;1.00
10566;DHT22;5331;48.148;16.326;2023-04-25T09:44:52;13.60;1.00
10566;DHT22;5331;48.148;16.326;2023-04-25T09:47:19;13.50;1.00
10566;DHT22;5331;48.148;16.326;2023-04-25T09:49:49;13.30;1.00
10566;DHT22;5331;48.148;16.326;2023-04-25T09:52:19;13.30;1.00
10566;DHT22;5331;48.148;16.326;2023-04-25T09:54:46;13.10;1.00
10566;DHT22;5331;48.148;16.326;2023-04-25T09:57:15;13.30;1.00
10566;DHT22;5331;48.148;16.326;2023-04-25T09:59:45;13.50;1.00
10566;DHT22;5331;48.148;16.326;2023-04-25T10:02:14;13.70;1.00
10566;DHT22;5331;48.148;16.326;2023-04-25T10:04:41;14.10;1.00
10566;DHT22;5331;48.148;16.326;2023-04-25T10:07:11;14.20;1.00
10566;DHT22;5331;48.148;16.326;2023-04-25T10:09:40;14.40;1.00
10566;DHT22;5331;48.148;16.326;2023-04-25T10:12:08;14.50;1.00
10566;DHT22;5331;48.148;16.326;2023-04-25T10:14:35;14.60;1.00
10566;DHT22;5331;48.148;16.326;2023-04-25T10:17:02;14.40;1.00
10566;DHT22;5331;48.148;16.326;2023-04-25T10:19:29;14.10;1.00
10566;DHT22;5331;48.148;16.326;2023-04-25T10:22:04;13.70;1.00
10566;DHT22;5331;48.148;16.326;2023-04-25T10:24:35;13.30;1.00
10566;DHT22;5331;48.148;16.326;2023-04-25T10:27:04;12.90;1.00
10566;DHT22;5331;48.148;16.326;2023-04-25T10:29:32;12.40;1.00
10566;DHT22;5331;48.148;16.326;2023-04-25T10:31:59;12.00;1.00
10566;DHT22;5331;48.148;16.326;2023-04-25T10:34:38;11.80;1.00
10566;DHT22;5331;48.148;16.326;2023-04-25T10:37:08;11.90;1.00
10566;DHT22;5331;48.148;16.326;2023-04-25T10:39:37;11.90;1.00
10566;DHT22;5331;48.148;16.326;2023-04-25T10:42:06;12.00;1.00
10566;DHT22;5331;48.148;16.326;2023-04-25T10:44:34;12.30;1.00
10566;DHT22;5331;48.148;16.326;2023-04-25T10:47:02;12.80;1.00
10566;DHT22;5331;48.148;16.326;2023-04-25T10:49:32;13.30;1.00
10566;DHT22;5331;48.148;16.326;2023-04-25T10:52:17;13.70;1.00
10566;DHT22;5331;48.148;16.326;2023-04-25T10:54:48;14.30;1.00
10566;DHT22;5331;48.148;16.326;2023-04-25T10:57:29;14.90;1.00
10566;DHT22;5331;48.148;16.326;2023-04-25T11:00:01;15.50;1.00
10566;DHT22;5331;48.148;16.326;2023-04-25T11:02:31;15.90;1.00
10566;DHT22;5331;48.148;16.326;2023-04-25T11:04:58;16.40;1.00
10566;DHT22;5331;48.148;16.326;2023-04-25T11:07:33;16.80;1.00
10566;DHT22;5331;48.148;16.326;2023-04-25T11:10:03;17.10;1.00
10566;DHT22;5331;48.148;16.326;2023-04-25T11:12:32;17.00;1.00
10566;DHT22;5331;48.148;16.326;2023-04-25T11:15:00;17.10;1.00
10566;DHT22;5331;48.148;16.326;2023-04-25T11:17:28;16.90;1.00
10566;DHT22;5331;48.148;16.326;2023-04-25T11:19:56;16.90;1.00
10566;DHT22;5331;48.148;16.326;2023-04-25T11:22:23;17.20;1.00
10566;DHT22;5331;48.148;16.326;2023-04-25T11:24:50;17.00;1.00
10566;DHT22;5331;48.148;16.326;2023-04-25T11:27:17;16.80;1.00
10566;DHT22;5331;48.148;16.326;2023-04-25T11:29:46;16.70;1.00
10566;DHT22;5331;48.148;16.326;2023-04-25T11:32:15;16.40;1.00
10566;DHT22;5331;48.148;16.326;2023-04-25T11:34:43;15.70;1.00
10566;DHT22;5331;48.148;16.326;2023-04-25T11:37:11;14.70;1.00
10566;DHT22;5331;48.148;16.326;2023-04-25T11:39:43;13.80;1.00
10566;DHT22;5331;48.148;16.326;2023-04-25T11:42:10;13.10;1.00
10566;DHT22;5331;48.148;16.326;2023-04-25T11:44:38;12.80;1.00
10566;DHT22;5331;48.148;16.326;2023-04-25T11:47:07;12.40;1.00
10566;DHT22;5331;48.148;16.326;2023-04-25T11:49:35;11.90;1.00
10566;DHT22;5331;48.148;16.326;2023-04-25T11:52:03;11.60;1.00
10566;DHT22;5331;48.148;16.326;2023-04-25T11:54:35;11.30;1.00
10566;DHT22;5331;48.148;16.326;2023-04-25T11:57:04;11.20;1.00
10566;DHT22;5331;48.148;16.326;2023-04-25T11:59:33;11.20;1.00
10566;DHT22;5331;48.148;16.326;2023-04-25T12:02:01;11.30;1.00
10566;DHT22;5331;48.148;16.326;2023-04-25T12:04:30;11.50;1.00
10566;DHT22;5331;48.148;16.326;2023-04-25T12:06:58;11.70;1.00
10566;DHT22;5331;48.148;16.326;2023-04-25T12:09:32;11.90;1.00
10566;DHT22;5331;48.148;16.326;2023-04-25T12:12:00;12.10;1.00
10566;DHT22;5331;48.148;16.326;2023-04-25T12:14:31;12.30;1.00
10566;DHT22;5331;48.148;16.326;2023-04-25T12:16:59;12.90;1.00
10566;DHT22;5331;48.148;16.326;2023-04-25T12:19:33;13.50;1.00
10566;DHT22;5331;48.148;16.326;2023-04-25T12:22:01;14.20;1.00
10566;DHT22;5331;48.148;16.326;2023-04-25T12:24:45;14.70;1.00
10566;DHT22;5331;48.148;16.326;2023-04-25T12:27:15;15.00;1.00
10566;DHT22;5331;48.148;16.326;2023-04-25T12:29:51;15.20;1.00
10566;DHT22;5331;48.148;16.326;2023-04-25T12:32:18;15.30;1.00
10566;DHT22;5331;48.148;16.326;2023-04-25T12:34:47;15.60;1.00
10566;DHT22;5331;48.148;16.326;2023-04-25T12:37:14;15.80;1.00
10566;DHT22;5331;48.148;16.326;2023-04-25T12:39:41;15.90;1.00
10566;DHT22;5331;48.148;16.326;2023-04-25T12:42:11;16.00;1.00
10566;DHT22;5331;48.148;16.326;2023-04-25T12:44:39;15.90;1.00
10566;DHT22;5331;48.148;16.326;2023-04-25T12:47:09;16.00;1.00
10566;DHT22;5331;48.148;16.326;2023-04-25T12:49:37;16.00;1.00
10566;DHT22;5331;48.148;16.326;2023-04-25T12:52:05;15.60;1.00
10566;DHT22;5331;48.148;16.326;2023-04-25T12:54:32;15.20;1.00
10566;DHT22;5331;48.148;16.326;2023-04-25T12:56:59;15.00;1.00
10566;DHT22;5331;48.148;16.326;2023-04-25T12:59:28;14.90;1.00
10566;DHT22;5331;48.148;16.326;2023-04-25T13:01:55;14.90;1.00
10566;DHT22;5331;48.148;16.326;2023-04-25T13:04:22;14.80;1.00
10566;DHT22;5331;48.148;16.326;2023-04-25T13:06:49;15.00;1.00
10566;DHT22;5331;48.148;16.326;2023-04-25T13:09:18;15.40;1.00
10566;DHT22;5331;48.148;16.326;2023-04-25T13:11:46;15.50;1.00
10566;DHT22;5331;48.148;16.326;2023-04-25T13:14:13;15.80;1.00
10566;DHT22;5331;48.148;16.326;2023-04-25T13:16:40;16.00;1.00
10566;DHT22;5331;48.148;16.326;2023-04-25T13:19:07;16.20;1.00
10566;DHT22;5331;48.148;16.326;2023-04-25T13:21:37;16.40;1.00
10566;DHT22;5331;48.148;16.326;2023-04-25T13:24:04;16.50;1.00
10566;DHT22;5331;48.148;16.326;2023-04-25T13:26:33;16.60;1.00
10566;DHT22;5331;48.148;16.326;2023-04-25T13:29:00;16.70;1.00
10566;DHT22;5331;48.148;16.326;2023-04-25T13:31:29;16.70;1.00
10566;DHT22;5331;48.148;16.326;2023-04-25T13:33:56;16.70;1.00
10566;DHT22;5331;48.148;16.326;2023-04-25T13:36:24;16.70;1.00
10566;DHT22;5331;48.148;16.326;2023-04-25T13:38:51;16.70;1.00
10566;DHT22;5331;48.148;16.326;2023-04-25T13:41:18;16.60;1.00
10566;DHT22;5331;48.148;16.326;2023-04-25T13:43:47;16.70;1.00
10566;DHT22;5331;48.148;16.326;2023-04-25T13:46:14;16.60;1.00
10566;DHT22;5331;48.148;16.326;2023-04-25T13:48:42;16.70;1.00
10566;DHT22;5331;48.148;16.326;2023-04-25T13:51:13;16.70;1.00
10566;DHT22;5331;48.148;16.326;2023-04-25T13:53:43;16.80;1.00
10566;DHT22;5331;48.148;16.326;2023-04-25T13:56:11;16.90;1.00
10566;DHT22;5331;48.148;16.326;2023-04-25T13:58:38;16.80;1.00
10566;DHT22;5331;48.148;16.326;2023-04-25T14:01:08;16.60;1.00
10566;DHT22;5331;48.148;16.326;2023-04-25T14:03:35;16.40;1.00
10566;DHT22;5331;48.148;16.326;2023-04-25T14:06:02;16.30;1.00
10566;DHT22;5331;48.148;16.326;2023-04-25T14:08:30;16.30;1.00
10566;DHT22;5331;48.148;16.326;2023-04-25T14:11:00;16.30;1.00
10566;DHT22;5331;48.148;16.326;2023-04-25T14:13:27;16.20;1.00
10566;DHT22;5331;48.148;16.326;2023-04-25T14:15:54;16.10;1.00
10566;DHT22;5331;48.148;16.326;2023-04-25T14:18:23;15.80;1.00
10566;DHT22;5331;48.148;16.326;2023-04-25T14:20:50;15.80;1.00
10566;DHT22;5331;48.148;16.326;2023-04-25T14:23:17;15.80;1.00
10566;DHT22;5331;48.148;16.326;2023-04-25T14:25:44;16.00;1.00
10566;DHT22;5331;48.148;16.326;2023-04-25T14:28:13;16.20;1.00
10566;DHT22;5331;48.148;16.326;2023-04-25T14:30:41;16.40;1.00
10566;DHT22;5331;48.148;16.326;2023-04-25T14:33:08;16.50;1.00
10566;DHT22;5331;48.148;16.326;2023-04-25T14:35:37;16.50;1.00
10566;DHT22;5331;48.148;16.326;2023-04-25T14:38:04;16.40;1.00
10566;DHT22;5331;48.148;16.326;2023-04-25T14:40:31;16.20;1.00
10566;DHT22;5331;48.148;16.326;2023-04-25T14:42:58;16.00;1.00
10566;DHT22;5331;48.148;16.326;2023-04-25T14:45:26;16.00;1.00
10566;DHT22;5331;48.148;16.326;2023-04-25T14:47:53;16.00;1.00
10566;DHT22;5331;48.148;16.326;2023-04-25T14:50:21;16.10;1.00
10566;DHT22;5331;48.148;16.326;2023-04-25T14:52:50;16.00;1.00
10566;DHT22;5331;48.148;16.326;2023-04-25T14:55:18;16.10;1.00
10566;DHT22;5331;48.148;16.326;2023-04-25T14:57:45;16.00;1.00
10566;DHT22;5331;48.148;16.326;2023-04-25T15:00:13;15.80;1.00
10566;DHT22;5331;48.148;16.326;2023-04-25T15:02:42;15.60;1.00
10566;DHT22;5331;48.148;16.326;2023-04-25T15:05:09;15.40;1.00
10566;DHT22;5331;48.148;16.326;2023-04-25T15:07:39;15.30;1.00
10566;DHT22;5331;48.148;16.326;2023-04-25T15:10:09;15.30;1.00
10566;DHT22;5331;48.148;16.326;2023-04-25T15:12:39;15.30;1.00
10566;DHT22;5331;48.148;16.326;2023-04-25T15:15:07;15.30;1.00
10566;DHT22;5331;48.148;16.326;2023-04-25T15:17:37;15.40;1.00
10566;DHT22;5331;48.148;16.326;2023-04-25T15:20:05;15.30;1.00
10566;DHT22;5331;48.148;16.326;2023-04-25T15:22:32;15.20;1.00
10566;DHT22;5331;48.148;16.326;2023-04-25T15:25:03;15.20;1.00
10566;DHT22;5331;48.148;16.326;2023-04-25T15:27:31;15.20;1.00
10566;DHT22;5331;48.148;16.326;2023-04-25T15:29:59;15.10;1.00
10566;DHT22;5331;48.148;16.326;2023-04-25T15:32:26;15.20;1.00
10566;DHT22;5331;48.148;16.326;2023-04-25T15:34:53;15.20;1.00
10566;DHT22;5331;48.148;16.326;2023-04-25T15:37:20;14.90;1.00
10566;DHT22;5331;48.148;16.326;2023-04-25T15:39:48;14.60;1.00
10566;DHT22;5331;48.148;16.326;2023-04-25T15:42:22;14.40;1.00
10566;DHT22;5331;48.148;16.326;2023-04-25T15:44:54;14.30;1.00
10566;DHT22;5331;48.148;16.326;2023-04-25T15:47:22;14.30;1.00
10566;DHT22;5331;48.148;16.326;2023-04-25T15:49:49;14.30;1.00
10566;DHT22;5331;48.148;16.326;2023-04-25T15:52:16;14.20;1.00